createdAt,value
2019-02-23T00:00:39.144Z,6.20
2019-02-23T00:03:11.404Z,7.00
2019-02-23T00:05:44.744Z,6.78
2019-02-23T00:08:17.015Z,6.67
2019-02-23T00:10:49.242Z,6.25
2019-02-23T00:13:21.529Z,6.17
2019-02-23T00:15:53.758Z,6.10
2019-02-23T00:18:26.005Z,6.12
2019-02-23T00:20:58.229Z,6.42
2019-02-23T00:23:30.471Z,6.80
2019-02-23T00:26:02.719Z,6.35
2019-02-23T00:28:34.993Z,6.15
2019-02-23T00:31:07.236Z,6.30
2019-02-23T00:33:39.560Z,6.55
2019-02-23T00:36:11.796Z,7.08
2019-02-23T00:43:12.812Z,6.60
2019-02-23T00:45:45.061Z,6.35
2019-02-23T00:48:17.340Z,6.35
2019-02-23T00:50:49.597Z,6.20
2019-02-23T00:53:21.841Z,6.65
2019-02-23T00:55:54.102Z,6.55
2019-02-23T00:58:26.394Z,6.37
2019-02-23T01:00:58.687Z,6.53
2019-02-23T01:03:30.969Z,6.40
2019-02-23T01:06:03.195Z,6.60
2019-02-23T01:08:35.449Z,7.45
2019-02-23T01:11:07.713Z,8.40
2019-02-23T01:13:39.960Z,8.30
2019-02-23T01:16:12.202Z,9.43
2019-02-23T01:18:44.448Z,11.30
2019-02-23T01:21:16.686Z,7.80
2019-02-23T01:23:48.948Z,8.50
2019-02-23T01:26:21.212Z,7.80
2019-02-23T01:28:53.453Z,8.55
2019-02-23T01:31:25.689Z,8.35
2019-02-23T01:33:57.965Z,8.40
2019-02-23T01:36:30.203Z,7.55
2019-02-23T01:39:02.465Z,9.25
2019-02-23T01:41:34.720Z,8.33
2019-02-23T01:44:07.225Z,8.65
2019-02-23T01:46:39.488Z,9.13
2019-02-23T01:49:11.805Z,8.08
2019-02-23T01:51:44.088Z,7.90
2019-02-23T01:54:16.350Z,8.45
2019-02-23T01:56:48.645Z,8.38
2019-02-23T01:59:20.904Z,7.80
2019-02-23T02:01:53.144Z,8.15
2019-02-23T02:04:25.488Z,7.67
2019-02-23T02:06:57.724Z,7.25
2019-02-23T02:09:29.997Z,7.20
2019-02-23T02:12:02.286Z,7.72
2019-02-23T02:14:34.612Z,8.40
2019-02-23T02:17:06.839Z,8.35
2019-02-23T02:19:40.009Z,8.40
2019-02-23T02:22:12.259Z,8.33
2019-02-23T02:24:44.505Z,7.85
2019-02-23T02:27:16.734Z,7.55
2019-02-23T02:29:49.080Z,8.48
2019-02-23T02:32:21.310Z,7.67
2019-02-23T02:34:53.574Z,8.95
2019-02-23T02:37:25.818Z,8.88
2019-02-23T02:39:58.068Z,8.15
2019-02-23T02:42:30.318Z,10.53
2019-02-23T02:45:02.574Z,11.53
2019-02-23T02:47:34.822Z,11.73
2019-02-23T02:50:08.048Z,11.68
2019-02-23T02:52:40.305Z,8.65
2019-02-23T02:55:12.563Z,9.60
2019-02-23T02:57:44.821Z,9.03
2019-02-23T03:00:17.217Z,9.63
2019-02-23T03:02:49.453Z,9.38
2019-02-23T03:05:21.699Z,9.40
2019-02-23T03:07:54.189Z,9.75
2019-02-23T03:10:26.449Z,9.05
2019-02-23T03:12:58.682Z,10.88
2019-02-23T03:15:30.929Z,9.83
2019-02-23T03:18:03.180Z,9.60
2019-02-23T03:20:36.900Z,9.75
2019-02-23T03:23:09.257Z,7.47
2019-02-23T03:25:41.520Z,9.63
2019-02-23T03:28:13.743Z,9.45
2019-02-23T03:30:46.010Z,10.28
2019-02-23T03:33:18.241Z,10.43
2019-02-23T03:35:50.518Z,11.88
2019-02-23T03:38:22.763Z,13.85
2019-02-23T03:40:55.071Z,14.00
2019-02-23T03:43:27.350Z,13.88
2019-02-23T03:45:59.644Z,11.33
2019-02-23T03:48:31.902Z,10.23
2019-02-23T03:51:04.227Z,11.20
2019-02-23T03:53:36.500Z,11.73
2019-02-23T03:56:08.789Z,9.53
2019-02-23T03:58:41.046Z,9.58
2019-02-23T04:01:13.296Z,10.10
2019-02-23T04:03:45.620Z,10.93
2019-02-23T04:06:17.886Z,10.00
2019-02-23T04:08:50.209Z,10.32
2019-02-23T04:11:22.449Z,9.80
2019-02-23T04:13:54.688Z,11.85
2019-02-23T04:16:26.936Z,14.03
2019-02-23T04:18:59.170Z,14.68
2019-02-23T04:21:31.435Z,15.38
2019-02-23T04:24:03.659Z,14.60
2019-02-23T04:26:35.925Z,11.73
2019-02-23T04:29:08.180Z,11.45
2019-02-23T04:31:41.339Z,10.65
2019-02-23T04:34:13.605Z,9.85
2019-02-23T04:36:45.849Z,9.78
2019-02-23T04:39:18.086Z,8.83
2019-02-23T04:41:50.435Z,10.75
2019-02-23T04:44:22.672Z,10.23
2019-02-23T04:46:54.924Z,14.38
2019-02-23T04:49:27.198Z,14.43
2019-02-23T04:51:59.496Z,14.23
2019-02-23T04:54:33.273Z,14.35
2019-02-23T04:57:05.607Z,10.68
2019-02-23T04:59:37.850Z,9.90
2019-02-23T05:02:10.105Z,10.35
2019-02-23T05:04:42.357Z,10.30
2019-02-23T05:07:14.602Z,11.10
2019-02-23T05:09:46.889Z,10.85
2019-02-23T05:12:19.216Z,9.55
2019-02-23T05:14:51.534Z,11.20
2019-02-23T05:17:23.783Z,15.58
2019-02-23T05:19:56.042Z,15.60
2019-02-23T05:25:42.079Z,16.00
2019-02-23T05:28:14.329Z,15.83
2019-02-23T05:30:46.573Z,16.15
2019-02-23T05:33:18.857Z,16.73
2019-02-23T05:35:51.119Z,10.82
2019-02-23T05:38:23.389Z,11.60
2019-02-23T05:40:55.647Z,11.35
2019-02-23T05:43:28.545Z,11.83
2019-02-23T05:46:00.832Z,10.65
2019-02-23T05:48:33.097Z,11.53
2019-02-23T05:51:05.321Z,10.20
2019-02-23T05:53:37.605Z,10.38
2019-02-23T05:56:12.880Z,9.08
2019-02-23T05:58:43.882Z,9.90
2019-02-23T06:01:16.122Z,8.55
2019-02-23T06:03:48.391Z,9.23
2019-02-23T06:06:20.611Z,9.50
2019-02-23T06:08:52.868Z,9.78
2019-02-23T06:11:25.148Z,12.50
2019-02-23T06:13:57.542Z,12.43
2019-02-23T06:16:29.833Z,12.73
2019-02-23T06:19:02.085Z,13.80
2019-02-23T06:21:34.328Z,8.80
2019-02-23T06:24:06.583Z,9.65
2019-02-23T06:26:38.851Z,8.95
2019-02-23T06:29:11.124Z,9.25
2019-02-23T06:31:43.429Z,7.65
2019-02-23T06:34:16.740Z,9.30
2019-02-23T06:36:49.225Z,8.40
2019-02-23T06:39:21.487Z,9.35
2019-02-23T06:41:53.725Z,9.18
2019-02-23T06:44:25.985Z,8.35
2019-02-23T06:46:58.239Z,8.25
2019-02-23T06:49:30.496Z,9.40
2019-02-23T06:52:04.577Z,11.78
2019-02-23T06:54:36.692Z,11.30
2019-02-23T06:57:08.949Z,11.90
2019-02-23T06:59:41.221Z,11.65
2019-02-23T07:02:13.524Z,9.23
2019-02-23T07:04:45.783Z,8.63
2019-02-23T07:07:18.846Z,8.93
2019-02-23T07:09:51.103Z,8.88
2019-02-23T07:12:23.345Z,8.23
2019-02-23T07:14:55.597Z,8.10
2019-02-23T07:17:27.915Z,8.83
2019-02-23T07:20:00.309Z,8.93
2019-02-23T07:22:33.756Z,8.40
2019-02-23T07:25:07.485Z,8.58
2019-02-23T07:27:39.728Z,8.60
2019-02-23T07:30:13.708Z,9.25
2019-02-23T07:32:45.946Z,9.55
2019-02-23T07:35:18.208Z,9.23
2019-02-23T07:37:50.456Z,9.18
2019-02-23T07:40:22.737Z,9.88
2019-02-23T07:42:54.989Z,12.18
2019-02-23T07:45:27.276Z,13.25
2019-02-23T07:47:59.545Z,13.72
2019-02-23T07:50:31.812Z,9.85
2019-02-23T07:53:04.087Z,10.28
2019-02-23T07:55:36.350Z,10.20
2019-02-23T07:58:09.643Z,9.58
2019-02-23T08:00:41.912Z,9.37
2019-02-23T08:03:14.149Z,9.45
2019-02-23T08:05:46.430Z,9.10
2019-02-23T08:08:18.661Z,9.35
2019-02-23T08:10:50.957Z,10.08
2019-02-23T08:13:23.190Z,9.88
2019-02-23T08:15:55.460Z,7.42
2019-02-23T08:18:27.695Z,9.13
2019-02-23T08:21:00.020Z,8.85
2019-02-23T08:23:32.260Z,9.20
2019-02-23T08:26:04.533Z,10.70
2019-02-23T08:28:36.797Z,10.15
2019-02-23T08:31:09.073Z,13.60
2019-02-23T08:33:41.325Z,14.33
2019-02-23T08:36:13.611Z,14.40
2019-02-23T08:38:45.892Z,14.23
2019-02-23T08:41:18.129Z,10.78
2019-02-23T08:43:50.405Z,10.78
2019-02-23T08:46:22.720Z,11.00
2019-02-23T08:48:55.008Z,10.65
2019-02-23T08:51:27.243Z,10.65
2019-02-23T08:53:59.606Z,10.35
2019-02-23T08:56:31.837Z,9.90
2019-02-23T08:59:04.109Z,11.30
2019-02-23T09:01:36.352Z,11.10
2019-02-23T09:04:08.640Z,11.40
2019-02-23T09:06:40.872Z,10.97
2019-02-23T09:09:13.133Z,10.38
2019-02-23T09:11:45.368Z,11.63
2019-02-23T09:14:17.630Z,10.30
2019-02-23T09:16:49.886Z,10.48
2019-02-23T09:19:22.149Z,10.50
2019-02-23T09:21:54.403Z,11.48
2019-02-23T09:24:27.005Z,9.70
2019-02-23T09:26:59.328Z,10.98
2019-02-23T09:29:31.595Z,11.30
2019-02-23T09:32:03.901Z,13.75
2019-02-23T09:34:36.212Z,15.32
2019-02-23T09:37:08.482Z,15.43
2019-02-23T09:39:40.739Z,15.18
2019-02-23T09:42:13.074Z,11.45
2019-02-23T09:44:45.345Z,10.73
2019-02-23T09:47:17.592Z,8.68
2019-02-23T09:49:49.842Z,11.90
2019-02-23T09:52:22.091Z,14.85
2019-02-23T09:54:54.344Z,14.73
2019-02-23T09:57:26.656Z,13.68
2019-02-23T09:59:58.924Z,14.55
2019-02-23T10:02:31.173Z,15.23
2019-02-23T10:05:03.498Z,14.85
2019-02-23T10:07:36.728Z,14.63
2019-02-23T10:10:11.959Z,15.20
2019-02-23T10:12:44.320Z,15.03
2019-02-23T10:15:16.522Z,15.08
2019-02-23T10:17:48.885Z,14.23
2019-02-23T10:20:21.205Z,15.08
2019-02-23T10:22:53.465Z,14.78
2019-02-23T10:25:25.743Z,13.85
2019-02-23T10:27:59.325Z,14.50
2019-02-23T10:30:31.719Z,14.75
2019-02-23T10:33:03.966Z,14.68
2019-02-23T10:35:36.222Z,13.85
2019-02-23T10:38:08.470Z,13.95
2019-02-23T10:40:40.760Z,14.53
2019-02-23T10:43:13.001Z,13.80
2019-02-23T10:45:45.256Z,14.87
2019-02-23T10:48:17.514Z,14.45
2019-02-23T10:50:49.776Z,14.35
2019-02-23T10:53:32.408Z,14.90
2019-02-23T10:55:55.957Z,9.75
2019-02-23T10:58:28.182Z,8.75
2019-02-23T11:01:00.456Z,9.50
2019-02-23T11:03:32.726Z,8.50
2019-02-23T11:06:05.133Z,9.75
2019-02-23T11:08:37.364Z,9.60
2019-02-23T11:11:09.603Z,10.95
2019-02-23T11:13:41.855Z,9.08
2019-02-23T11:16:14.257Z,9.23
2019-02-23T11:18:46.489Z,7.40
2019-02-23T11:21:18.744Z,8.78
2019-02-23T11:23:50.974Z,9.23
2019-02-23T11:26:23.227Z,9.58
2019-02-23T11:28:55.660Z,8.73
2019-02-23T11:31:27.933Z,9.65
2019-02-23T11:34:00.281Z,10.50
2019-02-23T11:36:32.586Z,9.13
2019-02-23T11:39:04.983Z,8.70
2019-02-23T11:41:37.240Z,10.90
2019-02-23T11:44:09.479Z,10.75
2019-02-23T11:46:59.362Z,10.90
2019-02-23T11:49:15.773Z,10.00
2019-02-23T11:51:48.048Z,10.50
2019-02-23T11:54:20.318Z,9.13
2019-02-23T11:56:52.589Z,10.48
2019-02-23T11:59:24.839Z,11.15
2019-02-23T12:01:57.091Z,10.65
2019-02-23T12:04:29.348Z,10.32
2019-02-23T12:07:01.604Z,7.78
2019-02-23T12:09:33.868Z,10.63
2019-02-23T12:12:06.140Z,10.13
2019-02-23T12:14:38.391Z,9.13
2019-02-23T12:17:10.655Z,10.10
2019-02-23T12:19:42.983Z,9.68
2019-02-23T12:22:15.348Z,9.90
2019-02-23T12:24:47.651Z,9.88
2019-02-23T12:27:19.928Z,9.70
2019-02-23T12:29:52.191Z,9.88
2019-02-23T12:32:25.366Z,8.18
2019-02-23T12:34:57.601Z,8.68
2019-02-23T12:37:29.873Z,9.78
2019-02-23T12:40:02.092Z,8.50
2019-02-23T12:42:34.368Z,9.37
2019-02-23T12:45:10.517Z,9.63
2019-02-23T12:47:42.801Z,7.80
2019-02-23T12:50:15.028Z,8.65
2019-02-23T12:52:47.336Z,8.97
2019-02-23T12:55:19.644Z,9.18
2019-02-23T12:57:51.875Z,9.08
2019-02-23T13:00:24.124Z,8.50
2019-02-23T13:02:56.399Z,7.60
2019-02-23T13:05:29.344Z,9.78
2019-02-23T13:08:01.642Z,10.23
2019-02-23T13:10:33.913Z,10.90
2019-02-23T13:13:22.821Z,10.53
2019-02-23T13:16:05.643Z,10.38
2019-02-23T13:18:39.419Z,9.98
2019-02-23T13:21:25.451Z,10.28
2019-02-23T13:23:59.248Z,9.33
2019-02-23T13:26:49.739Z,10.30
2019-02-23T13:29:39.908Z,10.13
2019-02-23T13:32:19.492Z,10.03
2019-02-23T13:34:53.311Z,9.43
2019-02-23T13:37:36.153Z,9.48
2019-02-23T13:40:28.019Z,8.90
2019-02-23T13:43:04.641Z,9.15
2019-02-23T13:45:40.935Z,9.08
2019-02-23T13:48:21.311Z,9.05
2019-02-23T13:50:57.895Z,9.60
2019-02-23T13:53:34.617Z,8.40
2019-02-23T13:56:17.428Z,9.40
2019-02-23T13:59:07.930Z,10.32
2019-02-23T14:01:50.866Z,8.65
2019-02-23T14:04:41.176Z,7.15
2019-02-23T14:07:14.949Z,7.40
2019-02-23T14:09:48.726Z,8.75
2019-02-23T14:12:37.665Z,7.75
2019-02-23T14:15:26.074Z,6.90
2019-02-23T14:18:07.835Z,5.60
2019-02-23T14:20:41.252Z,6.12
2019-02-23T14:23:20.805Z,5.70
2019-02-23T14:25:56.926Z,4.85
2019-02-23T14:28:45.547Z,4.00
2019-02-23T14:31:37.220Z,4.75
2019-02-23T14:34:14.017Z,4.67
2019-02-23T14:37:05.648Z,5.20
2019-02-23T14:39:42.106Z,6.15
2019-02-23T14:42:24.732Z,4.47
2019-02-23T14:44:58.512Z,4.37
2019-02-23T14:47:35.191Z,5.55
2019-02-23T14:50:14.744Z,5.72
2019-02-23T14:53:06.496Z,5.03
2019-02-23T14:55:43.072Z,5.33
2019-02-23T14:58:16.949Z,4.97
2019-02-23T15:01:09.131Z,5.85
2019-02-23T15:03:48.743Z,5.50
2019-02-23T15:06:28.466Z,5.25
2019-02-23T15:09:02.324Z,5.20
2019-02-23T15:11:36.114Z,5.50
2019-02-23T15:14:12.571Z,4.72
2019-02-23T15:16:55.028Z,6.00
2019-02-23T15:19:28.878Z,5.03
2019-02-23T15:22:02.664Z,5.45
2019-02-23T15:24:42.406Z,5.70
2019-02-23T15:27:18.833Z,4.47
2019-02-23T15:30:09.116Z,4.80
2019-02-23T15:32:54.728Z,5.20
2019-02-23T15:35:34.541Z,5.60
2019-02-23T15:38:08.305Z,5.70
2019-02-23T15:40:45.049Z,5.23
2019-02-23T15:43:30.627Z,5.25
2019-02-23T15:46:07.396Z,4.42
2019-02-23T15:48:55.985Z,4.80
2019-02-23T15:51:28.319Z,3.87
2019-02-23T15:54:00.594Z,4.20
2019-02-23T15:56:32.905Z,4.37
2019-02-23T15:59:05.137Z,4.62
2019-02-23T16:01:37.389Z,5.20
2019-02-23T16:04:09.662Z,5.45
2019-02-23T16:06:41.909Z,5.60
2019-02-23T16:09:14.234Z,5.42
2019-02-23T16:11:46.493Z,6.30
2019-02-23T16:14:18.706Z,5.70
2019-02-23T16:16:50.975Z,5.87
2019-02-23T16:19:23.213Z,6.03
2019-02-23T16:21:55.469Z,5.22
2019-02-23T16:24:27.715Z,5.03
2019-02-23T16:26:59.972Z,6.05
2019-02-23T16:29:32.431Z,5.92
2019-02-23T16:32:04.786Z,5.72
2019-02-23T16:34:37.040Z,5.75
2019-02-23T16:37:09.297Z,6.12
2019-02-23T16:39:41.528Z,6.03
2019-02-23T16:42:13.773Z,6.20
2019-02-23T16:44:46.009Z,6.73
2019-02-23T16:47:18.355Z,7.10
2019-02-23T16:49:50.657Z,7.67
2019-02-23T16:52:22.940Z,7.03
2019-02-23T16:54:55.177Z,7.33
2019-02-23T16:57:27.458Z,7.50
2019-02-23T16:59:59.701Z,6.78
2019-02-23T17:02:31.941Z,6.55
2019-02-23T17:05:05.138Z,6.10
2019-02-23T17:07:37.448Z,6.28
2019-02-23T17:10:09.743Z,6.47
2019-02-23T17:12:42.001Z,6.03
2019-02-23T17:15:14.267Z,6.30
2019-02-23T17:17:46.529Z,5.97
2019-02-23T17:20:18.793Z,7.15
2019-02-23T17:22:51.079Z,8.28
2019-02-23T17:25:23.333Z,7.45
2019-02-23T17:27:55.574Z,6.70
2019-02-23T17:30:27.821Z,7.00
2019-02-23T17:33:00.117Z,7.17
2019-02-23T17:35:32.340Z,6.67
2019-02-23T17:38:15.772Z,8.38
2019-02-23T17:40:38.673Z,7.65
2019-02-23T17:43:11.007Z,8.30
2019-02-23T17:45:43.253Z,7.08
2019-02-23T17:48:15.505Z,7.37
2019-02-23T17:50:47.795Z,7.10
2019-02-23T17:53:23.007Z,8.40
2019-02-23T17:55:55.252Z,7.58
2019-02-23T17:58:27.499Z,6.95
2019-02-23T18:00:59.748Z,7.62
2019-02-23T18:03:32.020Z,6.95
2019-02-23T18:06:04.261Z,7.72
2019-02-23T18:08:36.505Z,7.10
2019-02-23T18:11:09.698Z,7.50
2019-02-23T18:13:41.978Z,7.50
2019-02-23T18:16:14.215Z,6.87
2019-02-23T18:18:46.453Z,6.83
2019-02-23T18:21:18.781Z,7.28
2019-02-23T18:23:51.031Z,7.10
2019-02-23T18:26:23.304Z,7.08
2019-02-23T18:28:55.582Z,7.45
2019-02-23T18:31:27.813Z,7.17
2019-02-23T18:34:00.074Z,6.92
2019-02-23T18:36:32.310Z,7.35
2019-02-23T18:39:04.723Z,6.33
2019-02-23T18:41:36.974Z,7.47
2019-02-23T18:44:09.241Z,6.22
2019-02-23T18:46:41.462Z,6.75
2019-02-23T18:49:13.738Z,7.33
2019-02-23T18:51:45.975Z,7.00
2019-02-23T18:54:18.298Z,6.50
2019-02-23T18:56:50.539Z,7.03
2019-02-23T18:59:22.808Z,7.35
2019-02-23T19:01:55.047Z,7.53
2019-02-23T19:04:27.303Z,7.40
2019-02-23T19:06:59.550Z,7.12
2019-02-23T19:09:31.805Z,7.10
2019-02-23T19:12:04.028Z,7.15
2019-02-23T19:14:36.302Z,7.55
2019-02-23T19:17:08.566Z,7.72
2019-02-23T19:19:40.822Z,8.13
2019-02-23T19:22:13.101Z,7.85
2019-02-23T19:24:45.346Z,7.90
2019-02-23T19:27:17.605Z,8.05
2019-02-23T19:29:49.849Z,7.37
2019-02-23T19:32:22.079Z,8.00
2019-02-23T19:34:54.342Z,7.70
2019-02-23T19:37:26.601Z,7.55
2019-02-23T19:39:58.850Z,7.35
2019-02-23T19:42:31.109Z,7.53
2019-02-23T19:45:04.208Z,7.95
2019-02-23T19:47:36.520Z,6.70
2019-02-23T19:50:16.009Z,8.40
2019-02-23T19:52:48.272Z,8.25
2019-02-23T19:55:20.531Z,8.18
2019-02-23T19:57:52.754Z,8.75
2019-02-23T20:00:25.106Z,7.85
2019-02-23T20:02:57.328Z,7.47
2019-02-23T20:05:29.919Z,7.95
2019-02-23T20:08:02.157Z,7.25
2019-02-23T20:10:34.536Z,7.83
2019-02-23T20:13:06.751Z,7.40
2019-02-23T20:15:39.014Z,7.33
2019-02-23T20:18:11.256Z,7.87
2019-02-23T20:20:43.518Z,7.50
2019-02-23T20:23:15.769Z,7.30
2019-02-23T20:25:48.048Z,7.60
2019-02-23T20:28:20.366Z,7.37
2019-02-23T20:30:52.632Z,7.05
2019-02-23T20:33:24.856Z,7.40
2019-02-23T20:35:57.152Z,7.95
2019-02-23T20:38:29.955Z,7.55
2019-02-23T20:41:02.272Z,7.35
2019-02-23T20:43:34.591Z,8.30
2019-02-23T20:46:06.896Z,8.33
2019-02-23T20:48:39.202Z,8.65
2019-02-23T20:51:11.523Z,8.83
2019-02-23T20:53:43.772Z,8.85
2019-02-23T20:56:16.112Z,8.55
2019-02-23T20:58:48.346Z,7.47
2019-02-23T21:01:20.626Z,8.20
2019-02-23T21:03:52.950Z,7.97
2019-02-23T21:06:25.217Z,7.75
2019-02-23T21:08:57.447Z,7.92
2019-02-23T21:11:30.098Z,7.30
2019-02-23T21:14:02.341Z,7.95
2019-02-23T21:16:34.736Z,8.05
2019-02-23T21:19:06.967Z,7.90
2019-02-23T21:21:39.245Z,7.80
2019-02-23T21:24:11.483Z,7.15
2019-02-23T21:26:43.760Z,7.40
2019-02-23T21:29:15.996Z,7.60
2019-02-23T21:31:48.260Z,7.85
2019-02-23T21:34:20.570Z,7.75
2019-02-23T21:36:52.817Z,7.62
2019-02-23T21:39:25.072Z,8.08
2019-02-23T21:41:57.315Z,8.58
2019-02-23T21:44:30.157Z,8.12
2019-02-23T21:47:02.396Z,8.00
2019-02-23T21:49:34.713Z,7.95
2019-02-23T21:52:06.976Z,7.05
2019-02-23T21:54:39.236Z,7.30
2019-02-23T21:57:11.489Z,7.00
2019-02-23T21:59:43.840Z,7.10
2019-02-23T22:02:16.161Z,7.70
2019-02-23T22:04:48.420Z,8.93
2019-02-23T22:07:20.745Z,7.95
2019-02-23T22:09:52.966Z,8.28
2019-02-23T22:12:25.210Z,8.70
2019-02-23T22:14:57.507Z,8.45
2019-02-23T22:17:29.780Z,8.53
2019-02-23T22:20:02.019Z,8.80
2019-02-23T22:22:34.280Z,9.45
2019-02-23T22:25:06.595Z,8.60
2019-02-23T22:27:38.912Z,8.65
2019-02-23T22:30:11.158Z,9.48
2019-02-23T22:32:43.405Z,8.98
2019-02-23T22:35:15.642Z,8.43
2019-02-23T22:37:47.928Z,9.48
2019-02-23T22:40:20.316Z,8.48
2019-02-23T22:42:52.591Z,9.95
2019-02-23T22:45:24.811Z,9.08
2019-02-23T22:47:57.070Z,8.93
2019-02-23T22:50:29.325Z,9.38
2019-02-23T22:53:01.612Z,9.45
2019-02-23T22:55:33.850Z,9.23
2019-02-23T22:58:06.128Z,9.98
2019-02-23T23:00:57.833Z,8.30
2019-02-23T23:03:30.070Z,8.08
2019-02-23T23:06:02.328Z,8.35
2019-02-23T23:08:34.585Z,9.58
2019-02-23T23:11:07.802Z,9.08
2019-02-23T23:13:40.024Z,8.88
2019-02-23T23:16:12.297Z,8.35
2019-02-23T23:18:44.544Z,9.35
2019-02-23T23:21:16.813Z,9.55
2019-02-23T23:23:49.053Z,9.10
2019-02-23T23:26:21.377Z,8.30
2019-02-23T23:28:54.575Z,9.30
2019-02-23T23:31:26.828Z,8.90
2019-02-23T23:33:59.097Z,8.75
2019-02-23T23:36:31.419Z,8.55
2019-02-23T23:39:04.938Z,7.50
2019-02-23T23:41:37.191Z,8.18
2019-02-23T23:44:09.438Z,8.28
2019-02-23T23:46:41.714Z,8.35
2019-02-23T23:49:14.008Z,8.08
2019-02-23T23:51:46.317Z,7.40
2019-02-23T23:54:18.548Z,8.45
2019-02-23T23:56:50.816Z,7.45
2019-02-23T23:59:23.048Z,7.40
